sensor_id;sensor_type;location;lat;lon;timestamp;P1;durP1;ratioP1;P2;durP2;ratioP2
22634;SDS011;11484;50.858;4.384;2023-07-31T00:00:14;11.88;;;4.00;;
22634;SDS011;11484;50.858;4.384;2023-07-31T00:02:40;13.82;;;4.13;;
22634;SDS011;11484;50.858;4.384;2023-07-31T00:05:08;10.98;;;3.83;;
22634;SDS011;11484;50.858;4.384;2023-07-31T00:07:34;13.93;;;4.20;;
22634;SDS011;11484;50.858;4.384;2023-07-31T00:10:03;15.90;;;4.13;;
22634;SDS011;11484;50.858;4.384;2023-07-31T00:12:29;9.18;;;4.00;;
22634;SDS011;11484;50.858;4.384;2023-07-31T00:14:54;11.95;;;3.92;;
22634;SDS011;11484;50.858;4.384;2023-07-31T00:17:20;11.55;;;4.10;;
22634;SDS011;11484;50.858;4.384;2023-07-31T00:19:46;8.27;;;3.47;;
22634;SDS011;11484;50.858;4.384;2023-07-31T00:22:14;12.45;;;4.40;;
22634;SDS011;11484;50.858;4.384;2023-07-31T00:24:39;12.48;;;3.90;;
22634;SDS011;11484;50.858;4.384;2023-07-31T00:27:05;12.98;;;4.75;;
22634;SDS011;11484;50.858;4.384;2023-07-31T00:29:30;11.82;;;4.05;;
22634;SDS011;11484;50.858;4.384;2023-07-31T00:31:59;12.02;;;3.95;;
22634;SDS011;11484;50.858;4.384;2023-07-31T00:34:27;14.23;;;4.00;;
22634;SDS011;11484;50.858;4.384;2023-07-31T00:36:53;11.10;;;3.75;;
22634;SDS011;11484;50.858;4.384;2023-07-31T00:39:19;9.98;;;3.72;;
22634;SDS011;11484;50.858;4.384;2023-07-31T00:41:44;10.45;;;3.90;;
22634;SDS011;11484;50.858;4.384;2023-07-31T00:44:10;12.55;;;4.28;;
22634;SDS011;11484;50.858;4.384;2023-07-31T00:46:36;14.20;;;4.10;;
22634;SDS011;11484;50.858;4.384;2023-07-31T00:49:02;10.82;;;4.28;;
22634;SDS011;11484;50.858;4.384;2023-07-31T00:51:28;10.85;;;3.80;;
22634;SDS011;11484;50.858;4.384;2023-07-31T00:53:54;14.23;;;4.40;;
22634;SDS011;11484;50.858;4.384;2023-07-31T00:56:21;10.75;;;4.10;;
22634;SDS011;11484;50.858;4.384;2023-07-31T00:58:47;10.50;;;3.92;;
22634;SDS011;11484;50.858;4.384;2023-07-31T01:01:13;11.10;;;4.28;;
22634;SDS011;11484;50.858;4.384;2023-07-31T01:03:39;12.00;;;4.40;;
22634;SDS011;11484;50.858;4.384;2023-07-31T01:11:25;10.60;;;4.10;;
22634;SDS011;11484;50.858;4.384;2023-07-31T01:13:54;10.52;;;3.60;;
22634;SDS011;11484;50.858;4.384;2023-07-31T01:16:20;14.52;;;4.43;;
22634;SDS011;11484;50.858;4.384;2023-07-31T01:18:45;12.88;;;3.72;;
22634;SDS011;11484;50.858;4.384;2023-07-31T01:26:34;10.52;;;3.72;;
22634;SDS011;11484;50.858;4.384;2023-07-31T01:29:03;11.57;;;4.60;;
22634;SDS011;11484;50.858;4.384;2023-07-31T01:31:39;10.48;;;3.45;;
22634;SDS011;11484;50.858;4.384;2023-07-31T01:34:07;10.60;;;4.22;;
22634;SDS011;11484;50.858;4.384;2023-07-31T01:36:35;9.52;;;3.80;;
22634;SDS011;11484;50.858;4.384;2023-07-31T01:39:01;11.52;;;3.40;;
22634;SDS011;11484;50.858;4.384;2023-07-31T01:41:28;11.07;;;4.10;;
22634;SDS011;11484;50.858;4.384;2023-07-31T01:43:54;9.80;;;3.63;;
22634;SDS011;11484;50.858;4.384;2023-07-31T01:46:20;10.90;;;4.13;;
22634;SDS011;11484;50.858;4.384;2023-07-31T01:48:46;10.80;;;4.28;;
22634;SDS011;11484;50.858;4.384;2023-07-31T01:51:11;10.18;;;4.15;;
22634;SDS011;11484;50.858;4.384;2023-07-31T01:53:37;12.57;;;4.30;;
22634;SDS011;11484;50.858;4.384;2023-07-31T01:56:03;8.80;;;3.53;;
22634;SDS011;11484;50.858;4.384;2023-07-31T01:58:28;9.45;;;4.07;;
22634;SDS011;11484;50.858;4.384;2023-07-31T02:00:54;10.55;;;3.88;;
22634;SDS011;11484;50.858;4.384;2023-07-31T02:03:20;12.40;;;4.20;;
22634;SDS011;11484;50.858;4.384;2023-07-31T02:05:47;9.63;;;3.85;;
22634;SDS011;11484;50.858;4.384;2023-07-31T02:08:13;11.40;;;3.92;;
22634;SDS011;11484;50.858;4.384;2023-07-31T02:10:39;9.98;;;4.00;;
22634;SDS011;11484;50.858;4.384;2023-07-31T02:13:05;8.77;;;3.60;;
22634;SDS011;11484;50.858;4.384;2023-07-31T02:15:31;8.80;;;4.22;;
22634;SDS011;11484;50.858;4.384;2023-07-31T02:17:57;11.88;;;4.13;;
22634;SDS011;11484;50.858;4.384;2023-07-31T02:20:23;11.50;;;4.15;;
22634;SDS011;11484;50.858;4.384;2023-07-31T02:22:48;11.20;;;4.65;;
22634;SDS011;11484;50.858;4.384;2023-07-31T02:25:14;9.38;;;4.53;;
22634;SDS011;11484;50.858;4.384;2023-07-31T02:27:40;7.53;;;4.07;;
22634;SDS011;11484;50.858;4.384;2023-07-31T02:30:06;9.25;;;4.32;;
22634;SDS011;11484;50.858;4.384;2023-07-31T02:32:32;10.52;;;4.65;;
22634;SDS011;11484;50.858;4.384;2023-07-31T02:34:58;8.77;;;4.60;;
22634;SDS011;11484;50.858;4.384;2023-07-31T02:37:23;11.25;;;4.35;;
22634;SDS011;11484;50.858;4.384;2023-07-31T02:39:50;7.80;;;3.88;;
22634;SDS011;11484;50.858;4.384;2023-07-31T02:42:15;9.65;;;4.32;;
22634;SDS011;11484;50.858;4.384;2023-07-31T02:44:41;8.75;;;4.43;;
22634;SDS011;11484;50.858;4.384;2023-07-31T02:47:07;9.10;;;3.53;;
22634;SDS011;11484;50.858;4.384;2023-07-31T02:49:32;8.48;;;3.78;;
22634;SDS011;11484;50.858;4.384;2023-07-31T02:51:58;8.35;;;3.65;;
22634;SDS011;11484;50.858;4.384;2023-07-31T02:54:24;9.02;;;3.90;;
22634;SDS011;11484;50.858;4.384;2023-07-31T02:56:49;6.40;;;3.60;;
22634;SDS011;11484;50.858;4.384;2023-07-31T02:59:15;8.85;;;3.90;;
22634;SDS011;11484;50.858;4.384;2023-07-31T03:01:41;7.20;;;3.85;;
22634;SDS011;11484;50.858;4.384;2023-07-31T03:04:07;6.43;;;3.58;;
22634;SDS011;11484;50.858;4.384;2023-07-31T03:06:33;6.68;;;3.40;;
22634;SDS011;11484;50.858;4.384;2023-07-31T03:08:58;8.70;;;3.40;;
22634;SDS011;11484;50.858;4.384;2023-07-31T03:11:24;6.75;;;3.08;;
22634;SDS011;11484;50.858;4.384;2023-07-31T03:13:50;6.35;;;3.22;;
22634;SDS011;11484;50.858;4.384;2023-07-31T03:16:15;6.57;;;3.47;;
22634;SDS011;11484;50.858;4.384;2023-07-31T03:18:41;6.35;;;2.67;;
22634;SDS011;11484;50.858;4.384;2023-07-31T03:21:06;7.43;;;3.20;;
22634;SDS011;11484;50.858;4.384;2023-07-31T03:23:32;5.60;;;3.08;;
22634;SDS011;11484;50.858;4.384;2023-07-31T03:25:59;6.50;;;3.38;;
22634;SDS011;11484;50.858;4.384;2023-07-31T03:28:25;8.20;;;3.47;;
22634;SDS011;11484;50.858;4.384;2023-07-31T03:30:51;6.72;;;3.50;;
22634;SDS011;11484;50.858;4.384;2023-07-31T03:33:18;5.72;;;3.10;;
22634;SDS011;11484;50.858;4.384;2023-07-31T03:35:43;6.43;;;3.45;;
22634;SDS011;11484;50.858;4.384;2023-07-31T03:38:09;6.25;;;3.08;;
22634;SDS011;11484;50.858;4.384;2023-07-31T03:40:35;8.45;;;3.58;;
22634;SDS011;11484;50.858;4.384;2023-07-31T03:43:01;8.40;;;3.67;;
22634;SDS011;11484;50.858;4.384;2023-07-31T03:45:26;6.93;;;3.35;;
22634;SDS011;11484;50.858;4.384;2023-07-31T03:47:52;6.47;;;3.05;;
22634;SDS011;11484;50.858;4.384;2023-07-31T03:50:19;6.38;;;3.00;;
22634;SDS011;11484;50.858;4.384;2023-07-31T03:52:45;5.50;;;3.33;;
22634;SDS011;11484;50.858;4.384;2023-07-31T03:55:11;8.38;;;3.85;;
22634;SDS011;11484;50.858;4.384;2023-07-31T03:57:37;6.32;;;3.60;;
22634;SDS011;11484;50.858;4.384;2023-07-31T04:00:02;7.20;;;3.13;;
22634;SDS011;11484;50.858;4.384;2023-07-31T04:02:28;6.20;;;3.63;;
22634;SDS011;11484;50.858;4.384;2023-07-31T04:04:54;8.07;;;3.58;;
22634;SDS011;11484;50.858;4.384;2023-07-31T04:07:20;5.82;;;3.00;;
22634;SDS011;11484;50.858;4.384;2023-07-31T04:09:46;6.80;;;3.50;;
22634;SDS011;11484;50.858;4.384;2023-07-31T04:12:11;7.13;;;3.15;;
22634;SDS011;11484;50.858;4.384;2023-07-31T04:14:37;6.35;;;3.10;;
22634;SDS011;11484;50.858;4.384;2023-07-31T04:17:02;6.68;;;3.40;;
22634;SDS011;11484;50.858;4.384;2023-07-31T04:19:29;6.93;;;3.08;;
22634;SDS011;11484;50.858;4.384;2023-07-31T04:21:54;7.82;;;3.33;;
22634;SDS011;11484;50.858;4.384;2023-07-31T04:24:20;7.20;;;3.38;;
22634;SDS011;11484;50.858;4.384;2023-07-31T04:26:52;8.48;;;3.58;;
22634;SDS011;11484;50.858;4.384;2023-07-31T04:29:18;7.97;;;3.58;;
22634;SDS011;11484;50.858;4.384;2023-07-31T04:31:45;12.90;;;6.70;;
22634;SDS011;11484;50.858;4.384;2023-07-31T04:34:10;6.30;;;3.83;;
22634;SDS011;11484;50.858;4.384;2023-07-31T04:36:39;5.13;;;3.10;;
22634;SDS011;11484;50.858;4.384;2023-07-31T04:39:05;5.80;;;3.35;;
22634;SDS011;11484;50.858;4.384;2023-07-31T04:41:30;6.03;;;3.40;;
22634;SDS011;11484;50.858;4.384;2023-07-31T04:43:56;5.68;;;3.33;;
22634;SDS011;11484;50.858;4.384;2023-07-31T04:46:22;7.00;;;3.95;;
22634;SDS011;11484;50.858;4.384;2023-07-31T04:48:47;7.28;;;3.50;;
22634;SDS011;11484;50.858;4.384;2023-07-31T04:51:13;6.00;;;3.10;;
22634;SDS011;11484;50.858;4.384;2023-07-31T04:53:39;6.35;;;3.05;;
22634;SDS011;11484;50.858;4.384;2023-07-31T04:56:04;5.13;;;2.95;;
22634;SDS011;11484;50.858;4.384;2023-07-31T04:58:30;6.65;;;2.97;;
22634;SDS011;11484;50.858;4.384;2023-07-31T05:00:56;5.68;;;3.17;;
22634;SDS011;11484;50.858;4.384;2023-07-31T05:03:21;6.90;;;3.53;;
22634;SDS011;11484;50.858;4.384;2023-07-31T05:05:49;11.15;;;3.28;;
22634;SDS011;11484;50.858;4.384;2023-07-31T05:08:15;6.22;;;3.83;;
22634;SDS011;11484;50.858;4.384;2023-07-31T05:10:42;7.45;;;3.40;;
22634;SDS011;11484;50.858;4.384;2023-07-31T05:13:08;8.98;;;3.53;;
22634;SDS011;11484;50.858;4.384;2023-07-31T05:15:34;7.32;;;3.38;;
22634;SDS011;11484;50.858;4.384;2023-07-31T05:18:00;6.03;;;2.63;;
22634;SDS011;11484;50.858;4.384;2023-07-31T05:20:26;5.60;;;3.33;;
22634;SDS011;11484;50.858;4.384;2023-07-31T05:22:52;6.60;;;3.38;;
22634;SDS011;11484;50.858;4.384;2023-07-31T05:25:18;5.03;;;3.00;;
22634;SDS011;11484;50.858;4.384;2023-07-31T05:27:44;5.38;;;3.00;;
22634;SDS011;11484;50.858;4.384;2023-07-31T05:30:10;7.03;;;3.38;;
22634;SDS011;11484;50.858;4.384;2023-07-31T05:32:38;7.80;;;3.15;;
22634;SDS011;11484;50.858;4.384;2023-07-31T05:35:07;5.57;;;3.17;;
22634;SDS011;11484;50.858;4.384;2023-07-31T05:37:37;8.32;;;3.25;;
22634;SDS011;11484;50.858;4.384;2023-07-31T05:40:02;5.03;;;2.47;;
22634;SDS011;11484;50.858;4.384;2023-07-31T05:42:29;7.95;;;3.20;;
22634;SDS011;11484;50.858;4.384;2023-07-31T05:44:54;7.28;;;3.10;;
22634;SDS011;11484;50.858;4.384;2023-07-31T05:47:20;6.13;;;3.17;;
22634;SDS011;11484;50.858;4.384;2023-07-31T05:49:49;6.35;;;2.75;;
22634;SDS011;11484;50.858;4.384;2023-07-31T05:52:18;4.50;;;3.13;;
22634;SDS011;11484;50.858;4.384;2023-07-31T05:54:46;7.05;;;4.95;;
22634;SDS011;11484;50.858;4.384;2023-07-31T05:57:12;7.30;;;2.83;;
22634;SDS011;11484;50.858;4.384;2023-07-31T05:59:38;6.25;;;3.08;;
22634;SDS011;11484;50.858;4.384;2023-07-31T06:02:03;6.45;;;2.75;;
22634;SDS011;11484;50.858;4.384;2023-07-31T06:04:30;7.47;;;3.28;;
22634;SDS011;11484;50.858;4.384;2023-07-31T06:06:56;6.53;;;2.92;;
22634;SDS011;11484;50.858;4.384;2023-07-31T06:09:22;6.50;;;3.10;;
22634;SDS011;11484;50.858;4.384;2023-07-31T06:11:47;4.72;;;3.03;;
22634;SDS011;11484;50.858;4.384;2023-07-31T06:14:13;7.22;;;3.17;;
22634;SDS011;11484;50.858;4.384;2023-07-31T06:16:39;7.32;;;4.18;;
22634;SDS011;11484;50.858;4.384;2023-07-31T06:19:05;4.72;;;2.97;;
22634;SDS011;11484;50.858;4.384;2023-07-31T06:21:32;7.05;;;3.15;;
22634;SDS011;11484;50.858;4.384;2023-07-31T06:23:58;7.80;;;3.22;;
22634;SDS011;11484;50.858;4.384;2023-07-31T06:26:23;7.60;;;2.95;;
22634;SDS011;11484;50.858;4.384;2023-07-31T06:28:49;5.05;;;2.90;;
22634;SDS011;11484;50.858;4.384;2023-07-31T06:31:15;7.00;;;3.47;;
22634;SDS011;11484;50.858;4.384;2023-07-31T06:33:45;5.50;;;2.90;;
22634;SDS011;11484;50.858;4.384;2023-07-31T06:36:11;6.00;;;2.80;;
22634;SDS011;11484;50.858;4.384;2023-07-31T06:38:36;7.80;;;2.97;;
22634;SDS011;11484;50.858;4.384;2023-07-31T06:41:02;5.72;;;3.10;;
22634;SDS011;11484;50.858;4.384;2023-07-31T06:43:31;6.43;;;3.45;;
22634;SDS011;11484;50.858;4.384;2023-07-31T06:45:57;6.85;;;3.05;;
22634;SDS011;11484;50.858;4.384;2023-07-31T06:48:22;7.30;;;2.80;;
22634;SDS011;11484;50.858;4.384;2023-07-31T06:50:48;7.68;;;3.50;;
22634;SDS011;11484;50.858;4.384;2023-07-31T06:53:14;6.88;;;2.60;;
22634;SDS011;11484;50.858;4.384;2023-07-31T06:55:39;7.75;;;2.88;;
22634;SDS011;11484;50.858;4.384;2023-07-31T06:58:05;6.40;;;2.75;;
22634;SDS011;11484;50.858;4.384;2023-07-31T07:00:32;6.35;;;3.10;;
22634;SDS011;11484;50.858;4.384;2023-07-31T07:02:58;7.57;;;3.38;;
22634;SDS011;11484;50.858;4.384;2023-07-31T07:05:25;5.57;;;3.30;;
22634;SDS011;11484;50.858;4.384;2023-07-31T07:07:52;6.43;;;2.75;;
22634;SDS011;11484;50.858;4.384;2023-07-31T07:10:18;7.65;;;2.90;;
22634;SDS011;11484;50.858;4.384;2023-07-31T07:12:43;5.18;;;2.97;;
22634;SDS011;11484;50.858;4.384;2023-07-31T07:15:09;5.80;;;2.88;;
22634;SDS011;11484;50.858;4.384;2023-07-31T07:17:35;6.38;;;3.00;;
22634;SDS011;11484;50.858;4.384;2023-07-31T07:20:07;4.53;;;2.30;;
22634;SDS011;11484;50.858;4.384;2023-07-31T07:22:33;5.78;;;2.70;;
22634;SDS011;11484;50.858;4.384;2023-07-31T07:24:59;5.45;;;2.25;;
22634;SDS011;11484;50.858;4.384;2023-07-31T07:27:24;5.45;;;2.78;;
22634;SDS011;11484;50.858;4.384;2023-07-31T07:29:50;6.65;;;2.40;;
22634;SDS011;11484;50.858;4.384;2023-07-31T07:32:20;8.32;;;2.65;;
22634;SDS011;11484;50.858;4.384;2023-07-31T07:34:46;7.05;;;2.65;;
22634;SDS011;11484;50.858;4.384;2023-07-31T07:37:13;9.02;;;2.80;;
22634;SDS011;11484;50.858;4.384;2023-07-31T07:39:39;6.03;;;2.85;;
22634;SDS011;11484;50.858;4.384;2023-07-31T07:42:05;8.77;;;3.83;;
22634;SDS011;11484;50.858;4.384;2023-07-31T07:44:30;5.30;;;2.88;;
22634;SDS011;11484;50.858;4.384;2023-07-31T07:46:56;4.78;;;2.70;;
22634;SDS011;11484;50.858;4.384;2023-07-31T07:49:22;6.25;;;2.42;;
22634;SDS011;11484;50.858;4.384;2023-07-31T07:51:48;8.40;;;2.38;;
22634;SDS011;11484;50.858;4.384;2023-07-31T07:54:14;7.05;;;2.72;;
22634;SDS011;11484;50.858;4.384;2023-07-31T07:56:41;8.35;;;2.88;;
22634;SDS011;11484;50.858;4.384;2023-07-31T07:59:07;7.05;;;2.38;;
22634;SDS011;11484;50.858;4.384;2023-07-31T08:01:33;6.28;;;2.83;;
22634;SDS011;11484;50.858;4.384;2023-07-31T08:03:59;5.20;;;2.60;;
22634;SDS011;11484;50.858;4.384;2023-07-31T08:06:24;6.40;;;2.47;;
22634;SDS011;11484;50.858;4.384;2023-07-31T08:08:50;6.75;;;3.15;;
22634;SDS011;11484;50.858;4.384;2023-07-31T08:11:16;7.35;;;2.65;;
22634;SDS011;11484;50.858;4.384;2023-07-31T08:13:41;6.22;;;2.72;;
22634;SDS011;11484;50.858;4.384;2023-07-31T08:16:07;6.68;;;2.47;;
22634;SDS011;11484;50.858;4.384;2023-07-31T08:18:33;5.65;;;2.63;;
22634;SDS011;11484;50.858;4.384;2023-07-31T08:20:59;5.53;;;2.70;;
22634;SDS011;11484;50.858;4.384;2023-07-31T08:23:27;5.80;;;2.53;;
22634;SDS011;11484;50.858;4.384;2023-07-31T08:25:53;5.82;;;2.65;;
22634;SDS011;11484;50.858;4.384;2023-07-31T08:28:18;6.22;;;2.58;;
22634;SDS011;11484;50.858;4.384;2023-07-31T08:30:44;6.82;;;2.40;;
22634;SDS011;11484;50.858;4.384;2023-07-31T08:33:10;8.20;;;3.05;;
22634;SDS011;11484;50.858;4.384;2023-07-31T08:35:36;5.47;;;2.40;;
22634;SDS011;11484;50.858;4.384;2023-07-31T08:38:01;7.03;;;2.80;;
22634;SDS011;11484;50.858;4.384;2023-07-31T08:40:28;5.10;;;2.67;;
22634;SDS011;11484;50.858;4.384;2023-07-31T08:42:54;6.70;;;2.58;;
22634;SDS011;11484;50.858;4.384;2023-07-31T08:45:21;5.10;;;2.50;;
22634;SDS011;11484;50.858;4.384;2023-07-31T08:47:49;6.82;;;2.42;;
22634;SDS011;11484;50.858;4.384;2023-07-31T08:50:17;5.05;;;2.40;;
22634;SDS011;11484;50.858;4.384;2023-07-31T08:52:45;7.95;;;2.70;;
22634;SDS011;11484;50.858;4.384;2023-07-31T08:55:11;6.70;;;2.60;;
22634;SDS011;11484;50.858;4.384;2023-07-31T08:57:39;5.93;;;2.60;;
22634;SDS011;11484;50.858;4.384;2023-07-31T09:00:07;5.57;;;2.80;;
22634;SDS011;11484;50.858;4.384;2023-07-31T09:02:37;7.45;;;2.95;;
22634;SDS011;11484;50.858;4.384;2023-07-31T09:05:06;6.25;;;2.90;;
22634;SDS011;11484;50.858;4.384;2023-07-31T09:07:36;6.00;;;2.97;;
22634;SDS011;11484;50.858;4.384;2023-07-31T09:10:02;6.57;;;2.55;;
22634;SDS011;11484;50.858;4.384;2023-07-31T09:12:29;6.78;;;3.03;;
22634;SDS011;11484;50.858;4.384;2023-07-31T09:14:56;6.38;;;3.15;;
22634;SDS011;11484;50.858;4.384;2023-07-31T09:17:29;6.93;;;2.80;;
22634;SDS011;11484;50.858;4.384;2023-07-31T09:20:17;5.15;;;2.67;;
22634;SDS011;11484;50.858;4.384;2023-07-31T09:22:45;4.68;;;2.28;;
22634;SDS011;11484;50.858;4.384;2023-07-31T09:25:22;6.72;;;3.00;;
22634;SDS011;11484;50.858;4.384;2023-07-31T09:30:19;6.93;;;3.13;;
22634;SDS011;11484;50.858;4.384;2023-07-31T09:32:46;8.95;;;3.10;;
22634;SDS011;11484;50.858;4.384;2023-07-31T09:35:18;7.43;;;3.03;;
22634;SDS011;11484;50.858;4.384;2023-07-31T09:37:49;7.10;;;3.05;;
22634;SDS011;11484;50.858;4.384;2023-07-31T09:40:25;8.18;;;2.97;;
22634;SDS011;11484;50.858;4.384;2023-07-31T09:42:56;4.35;;;2.80;;
22634;SDS011;11484;50.858;4.384;2023-07-31T09:45:26;5.78;;;3.30;;
22634;SDS011;11484;50.858;4.384;2023-07-31T09:47:53;7.43;;;3.30;;
22634;SDS011;11484;50.858;4.384;2023-07-31T09:50:20;8.05;;;3.45;;
22634;SDS011;11484;50.858;4.384;2023-07-31T09:52:47;6.93;;;3.53;;
22634;SDS011;11484;50.858;4.384;2023-07-31T09:55:12;6.70;;;4.38;;
22634;SDS011;11484;50.858;4.384;2023-07-31T09:57:42;9.35;;;3.95;;
22634;SDS011;11484;50.858;4.384;2023-07-31T10:00:11;11.35;;;3.88;;
22634;SDS011;11484;50.858;4.384;2023-07-31T10:02:38;7.45;;;3.70;;
22634;SDS011;11484;50.858;4.384;2023-07-31T10:05:07;7.13;;;4.13;;
22634;SDS011;11484;50.858;4.384;2023-07-31T10:07:36;7.90;;;3.70;;
22634;SDS011;11484;50.858;4.384;2023-07-31T10:10:04;7.93;;;4.20;;
22634;SDS011;11484;50.858;4.384;2023-07-31T10:12:32;7.82;;;3.88;;
22634;SDS011;11484;50.858;4.384;2023-07-31T10:14:59;9.13;;;4.22;;
22634;SDS011;11484;50.858;4.384;2023-07-31T10:17:26;7.68;;;4.05;;
22634;SDS011;11484;50.858;4.384;2023-07-31T10:19:58;6.05;;;3.60;;
22634;SDS011;11484;50.858;4.384;2023-07-31T10:22:26;9.18;;;4.18;;
22634;SDS011;11484;50.858;4.384;2023-07-31T10:24:52;8.00;;;4.10;;
22634;SDS011;11484;50.858;4.384;2023-07-31T10:27:20;8.52;;;3.78;;
22634;SDS011;11484;50.858;4.384;2023-07-31T10:29:45;6.28;;;3.30;;
22634;SDS011;11484;50.858;4.384;2023-07-31T10:32:13;8.18;;;3.65;;
22634;SDS011;11484;50.858;4.384;2023-07-31T10:34:40;7.95;;;3.78;;
22634;SDS011;11484;50.858;4.384;2023-07-31T10:39:59;8.90;;;4.00;;
22634;SDS011;11484;50.858;4.384;2023-07-31T10:45:10;9.05;;;3.83;;
22634;SDS011;11484;50.858;4.384;2023-07-31T10:47:46;10.45;;;4.20;;
22634;SDS011;11484;50.858;4.384;2023-07-31T10:52:47;8.05;;;3.78;;
22634;SDS011;11484;50.858;4.384;2023-07-31T10:55:15;7.82;;;4.10;;
22634;SDS011;11484;50.858;4.384;2023-07-31T10:57:45;8.88;;;3.83;;
22634;SDS011;11484;50.858;4.384;2023-07-31T11:03:02;10.90;;;4.70;;
22634;SDS011;11484;50.858;4.384;2023-07-31T11:05:51;9.13;;;4.15;;
22634;SDS011;11484;50.858;4.384;2023-07-31T11:08:21;7.40;;;3.65;;
22634;SDS011;11484;50.858;4.384;2023-07-31T11:11:04;8.02;;;4.25;;
22634;SDS011;11484;50.858;4.384;2023-07-31T11:13:32;7.93;;;3.85;;
22634;SDS011;11484;50.858;4.384;2023-07-31T11:15:59;6.97;;;3.80;;
22634;SDS011;11484;50.858;4.384;2023-07-31T11:18:25;9.45;;;3.88;;
22634;SDS011;11484;50.858;4.384;2023-07-31T11:20:52;7.22;;;3.63;;
22634;SDS011;11484;50.858;4.384;2023-07-31T11:23:18;11.05;;;3.65;;
22634;SDS011;11484;50.858;4.384;2023-07-31T11:25:44;8.68;;;3.72;;
22634;SDS011;11484;50.858;4.384;2023-07-31T11:28:11;9.85;;;4.05;;
22634;SDS011;11484;50.858;4.384;2023-07-31T11:30:39;7.85;;;3.55;;
22634;SDS011;11484;50.858;4.384;2023-07-31T11:33:06;9.85;;;3.72;;
22634;SDS011;11484;50.858;4.384;2023-07-31T11:35:34;7.95;;;3.78;;
22634;SDS011;11484;50.858;4.384;2023-07-31T11:38:06;8.40;;;3.58;;
22634;SDS011;11484;50.858;4.384;2023-07-31T11:40:40;13.60;;;4.93;;
22634;SDS011;11484;50.858;4.384;2023-07-31T11:43:12;10.05;;;4.00;;
22634;SDS011;11484;50.858;4.384;2023-07-31T11:45:42;9.52;;;4.15;;
22634;SDS011;11484;50.858;4.384;2023-07-31T11:50:53;12.52;;;4.25;;
22634;SDS011;11484;50.858;4.384;2023-07-31T11:53:23;7.90;;;3.90;;
22634;SDS011;11484;50.858;4.384;2023-07-31T11:55:54;8.73;;;3.80;;
22634;SDS011;11484;50.858;4.384;2023-07-31T11:58:22;7.45;;;3.60;;
22634;SDS011;11484;50.858;4.384;2023-07-31T12:00:48;7.97;;;3.53;;
22634;SDS011;11484;50.858;4.384;2023-07-31T12:03:14;9.30;;;3.55;;
22634;SDS011;11484;50.858;4.384;2023-07-31T12:05:41;8.55;;;4.00;;
22634;SDS011;11484;50.858;4.384;2023-07-31T12:08:10;9.50;;;4.30;;
22634;SDS011;11484;50.858;4.384;2023-07-31T12:10:41;8.30;;;3.95;;
22634;SDS011;11484;50.858;4.384;2023-07-31T12:13:10;8.05;;;3.78;;
22634;SDS011;11484;50.858;4.384;2023-07-31T12:15:44;6.40;;;3.13;;
22634;SDS011;11484;50.858;4.384;2023-07-31T12:18:14;6.78;;;3.45;;
22634;SDS011;11484;50.858;4.384;2023-07-31T12:20:47;9.93;;;4.28;;
22634;SDS011;11484;50.858;4.384;2023-07-31T12:23:20;7.28;;;3.13;;
22634;SDS011;11484;50.858;4.384;2023-07-31T12:26:03;8.60;;;3.58;;
22634;SDS011;11484;50.858;4.384;2023-07-31T12:28:40;8.30;;;4.43;;
22634;SDS011;11484;50.858;4.384;2023-07-31T12:31:31;5.38;;;3.28;;
22634;SDS011;11484;50.858;4.384;2023-07-31T12:33:58;7.55;;;3.30;;
22634;SDS011;11484;50.858;4.384;2023-07-31T12:36:24;6.75;;;3.38;;
22634;SDS011;11484;50.858;4.384;2023-07-31T12:38:50;9.18;;;3.88;;
22634;SDS011;11484;50.858;4.384;2023-07-31T12:41:19;6.72;;;3.28;;
22634;SDS011;11484;50.858;4.384;2023-07-31T12:43:45;8.13;;;3.88;;
22634;SDS011;11484;50.858;4.384;2023-07-31T12:46:11;9.02;;;4.00;;
22634;SDS011;11484;50.858;4.384;2023-07-31T12:48:38;6.35;;;3.58;;
22634;SDS011;11484;50.858;4.384;2023-07-31T12:51:04;5.32;;;3.35;;
22634;SDS011;11484;50.858;4.384;2023-07-31T12:53:30;7.40;;;3.80;;
22634;SDS011;11484;50.858;4.384;2023-07-31T12:55:56;7.43;;;4.05;;
22634;SDS011;11484;50.858;4.384;2023-07-31T12:58:22;8.07;;;3.80;;
22634;SDS011;11484;50.858;4.384;2023-07-31T13:00:47;5.90;;;3.28;;
22634;SDS011;11484;50.858;4.384;2023-07-31T13:03:13;6.53;;;3.13;;
22634;SDS011;11484;50.858;4.384;2023-07-31T13:05:39;5.85;;;3.47;;
22634;SDS011;11484;50.858;4.384;2023-07-31T13:08:07;6.60;;;2.85;;
22634;SDS011;11484;50.858;4.384;2023-07-31T13:10:33;6.15;;;3.25;;
22634;SDS011;11484;50.858;4.384;2023-07-31T13:12:58;6.03;;;2.90;;
22634;SDS011;11484;50.858;4.384;2023-07-31T13:15:24;6.18;;;2.88;;
22634;SDS011;11484;50.858;4.384;2023-07-31T13:17:50;6.22;;;2.92;;
22634;SDS011;11484;50.858;4.384;2023-07-31T13:20:16;7.07;;;2.47;;
22634;SDS011;11484;50.858;4.384;2023-07-31T13:22:41;6.35;;;2.40;;
22634;SDS011;11484;50.858;4.384;2023-07-31T13:25:07;8.02;;;2.65;;
22634;SDS011;11484;50.858;4.384;2023-07-31T13:27:34;4.55;;;2.30;;
22634;SDS011;11484;50.858;4.384;2023-07-31T13:30:00;5.35;;;2.50;;
22634;SDS011;11484;50.858;4.384;2023-07-31T13:32:26;5.63;;;2.60;;
22634;SDS011;11484;50.858;4.384;2023-07-31T13:34:52;4.60;;;2.80;;
22634;SDS011;11484;50.858;4.384;2023-07-31T13:37:17;4.40;;;2.40;;
22634;SDS011;11484;50.858;4.384;2023-07-31T13:39:43;4.50;;;2.70;;
22634;SDS011;11484;50.858;4.384;2023-07-31T13:42:09;5.68;;;2.60;;
22634;SDS011;11484;50.858;4.384;2023-07-31T13:44:40;5.38;;;2.70;;
22634;SDS011;11484;50.858;4.384;2023-07-31T13:47:07;7.47;;;2.63;;
22634;SDS011;11484;50.858;4.384;2023-07-31T13:49:34;4.95;;;3.00;;
22634;SDS011;11484;50.858;4.384;2023-07-31T13:52:01;6.15;;;2.95;;
22634;SDS011;11484;50.858;4.384;2023-07-31T13:54:28;5.43;;;2.80;;
22634;SDS011;11484;50.858;4.384;2023-07-31T13:56:54;6.70;;;2.97;;
22634;SDS011;11484;50.858;4.384;2023-07-31T13:59:22;6.63;;;3.05;;
22634;SDS011;11484;50.858;4.384;2023-07-31T14:01:48;7.00;;;2.80;;
22634;SDS011;11484;50.858;4.384;2023-07-31T14:04:14;7.20;;;2.95;;
22634;SDS011;11484;50.858;4.384;2023-07-31T14:06:40;5.53;;;2.70;;
22634;SDS011;11484;50.858;4.384;2023-07-31T14:09:06;5.20;;;2.40;;
22634;SDS011;11484;50.858;4.384;2023-07-31T14:11:32;6.13;;;3.05;;
22634;SDS011;11484;50.858;4.384;2023-07-31T14:13:58;3.97;;;2.10;;
22634;SDS011;11484;50.858;4.384;2023-07-31T14:16:24;4.78;;;2.67;;
22634;SDS011;11484;50.858;4.384;2023-07-31T14:18:49;5.60;;;2.72;;
22634;SDS011;11484;50.858;4.384;2023-07-31T14:21:15;3.90;;;2.45;;
22634;SDS011;11484;50.858;4.384;2023-07-31T14:23:41;5.43;;;2.58;;
22634;SDS011;11484;50.858;4.384;2023-07-31T14:26:07;6.55;;;2.92;;
22634;SDS011;11484;50.858;4.384;2023-07-31T14:28:33;5.00;;;2.58;;
22634;SDS011;11484;50.858;4.384;2023-07-31T14:31:00;5.25;;;2.60;;
22634;SDS011;11484;50.858;4.384;2023-07-31T14:33:26;6.60;;;2.75;;
22634;SDS011;11484;50.858;4.384;2023-07-31T14:35:52;4.10;;;2.45;;
22634;SDS011;11484;50.858;4.384;2023-07-31T14:38:18;4.35;;;2.30;;
22634;SDS011;11484;50.858;4.384;2023-07-31T14:40:43;5.10;;;2.50;;
22634;SDS011;11484;50.858;4.384;2023-07-31T14:43:09;4.90;;;2.40;;
22634;SDS011;11484;50.858;4.384;2023-07-31T14:45:35;4.00;;;2.10;;
22634;SDS011;11484;50.858;4.384;2023-07-31T14:48:01;6.15;;;2.40;;
22634;SDS011;11484;50.858;4.384;2023-07-31T14:50:27;4.60;;;2.30;;
22634;SDS011;11484;50.858;4.384;2023-07-31T14:52:53;3.75;;;2.17;;
22634;SDS011;11484;50.858;4.384;2023-07-31T14:55:22;3.40;;;2.00;;
22634;SDS011;11484;50.858;4.384;2023-07-31T14:57:48;6.10;;;2.63;;
22634;SDS011;11484;50.858;4.384;2023-07-31T15:00:14;3.00;;;1.90;;
22634;SDS011;11484;50.858;4.384;2023-07-31T15:02:41;3.55;;;1.95;;
22634;SDS011;11484;50.858;4.384;2023-07-31T15:05:07;2.58;;;1.70;;
22634;SDS011;11484;50.858;4.384;2023-07-31T15:07:33;3.30;;;1.98;;
22634;SDS011;11484;50.858;4.384;2023-07-31T15:09:59;4.03;;;1.83;;